Pagrindinis puslapis
METAR-TAF:

METAR-TAF

Oro uostai :

Saporas, Japonija

platuma: 43-07N, ilguma: 141-23E, Aukštis: 8 m

Dabartinis oras

Ataskaita buvo paskelbta 7 valandos ir 42 minutes, ne 11:00 UTC
Vėjas 5 kt iš Šiaurės
Temperatūra 3°C
Drėgmė 93%
Slėgis 1023 hPa
Matomumas 10 km arba daugiau
Mažai debesys ne aukštis 1000 ft
Su prošvaistėmis ne aukštis 3000 ft
lietus

METAR: RJCO 271100Z 35005KT 9999 -SHRA FEW010 BKN030 03/02 Q1023

Laikas: 03:42 (18:42 UTC)


TAF: trūkstamas

Orai ataskaitas ir orų prognozės (METAR, TAF).

turimą stotys yra geltonos ir raudonos taškus žemėlapyje.

Perkelti pele per norėdami pamatyti stoties vardą.

Tada spustelėkite, norėdami matyti oro stebėjimo ir prognozės.

Norėdami pakeisti žemėlapį: spustelėkite ant žalios mygtukų su juodo kryžiaus žemyn,; žalią mygtuką su brūkšneliu, jei norite nutolinti; arba žalių rodyklių gretimoms žemėlapius.


METAR-TAF: